createdAt,value
2022-12-14T00:01:27.174Z,-3.74
2022-12-14T00:03:55.576Z,-3.77
2022-12-14T00:06:26.299Z,-3.70
2022-12-14T00:08:55.673Z,-3.83
2022-12-14T00:11:23.492Z,-3.74
2022-12-14T00:13:52.654Z,-3.90
2022-12-14T00:16:21.053Z,-3.70
2022-12-14T00:18:52.305Z,-3.60
2022-12-14T00:21:20.562Z,-3.79
2022-12-14T00:23:51.223Z,-3.74
2022-12-14T00:26:20.960Z,-3.82
2022-12-14T00:28:50.031Z,-3.68
2022-12-14T00:31:17.754Z,-3.68
2022-12-14T00:33:45.638Z,-3.64
2022-12-14T00:36:14.963Z,-3.61
2022-12-14T00:38:42.848Z,-3.82
2022-12-14T00:41:12.331Z,-3.82
2022-12-14T00:43:40.119Z,-3.74
2022-12-14T00:46:07.845Z,-3.73
2022-12-14T00:48:35.547Z,-3.72
2022-12-14T00:51:03.414Z,-3.73
2022-12-14T00:53:31.054Z,-3.66
2022-12-14T00:55:58.524Z,-3.69
2022-12-14T00:58:27.843Z,-3.76
2022-12-14T01:01:02.620Z,-3.70
2022-12-14T01:03:30.721Z,-3.77
2022-12-14T01:05:59.159Z,-3.91
2022-12-14T01:08:26.922Z,-3.88
2022-12-14T01:10:54.401Z,-4.10
2022-12-14T01:13:21.898Z,-3.86
2022-12-14T01:15:50.753Z,-3.83
2022-12-14T01:18:18.844Z,-3.86
2022-12-14T01:20:46.282Z,-3.81
2022-12-14T01:23:13.704Z,-4.01
2022-12-14T01:25:41.156Z,-3.90
2022-12-14T01:28:08.600Z,-4.13
2022-12-14T01:30:36.093Z,-3.78
2022-12-14T01:33:04.950Z,-3.97
2022-12-14T01:35:34.525Z,-3.91
2022-12-14T01:38:02.048Z,-3.87
2022-12-14T01:40:29.509Z,-3.93
2022-12-14T01:42:56.967Z,-3.86
2022-12-14T01:45:24.687Z,-3.86
2022-12-14T01:47:54.403Z,-3.89
2022-12-14T01:50:27.652Z,-3.89
2022-12-14T01:52:58.053Z,-3.63
2022-12-14T01:55:27.949Z,-3.63
2022-12-14T01:57:59.259Z,-3.71
2022-12-14T02:00:26.718Z,-3.68
2022-12-14T02:02:57.808Z,-3.59
2022-12-14T02:05:28.662Z,-3.65
2022-12-14T02:07:56.594Z,-3.56
2022-12-14T02:10:26.352Z,-3.53
2022-12-14T02:12:58.355Z,-3.41
2022-12-14T02:15:26.065Z,-3.41
2022-12-14T02:17:53.773Z,-3.34
2022-12-14T02:20:22.098Z,-3.71
2022-12-14T02:23:30.794Z,-3.63
2022-12-14T02:26:48.732Z,-3.39
2022-12-14T02:29:36.803Z,-3.30
2022-12-14T02:32:42.172Z,-3.25
2022-12-14T02:35:14.561Z,-3.22
2022-12-14T02:37:47.219Z,-3.26
2022-12-14T02:40:22.769Z,-3.25
2022-12-14T02:42:57.822Z,-3.29
2022-12-14T02:45:33.757Z,-3.46
2022-12-14T02:48:02.754Z,-3.54
2022-12-14T02:50:34.503Z,-3.63
2022-12-14T02:53:05.263Z,-3.58
2022-12-14T02:55:35.879Z,-3.55
2022-12-14T02:58:05.723Z,-3.55
2022-12-14T03:00:36.157Z,-3.59
2022-12-14T03:03:05.610Z,-3.90
2022-12-14T03:05:33.869Z,-4.06
2022-12-14T03:08:03.907Z,-4.16
2022-12-14T03:10:37.575Z,-4.17
2022-12-14T03:13:10.470Z,-4.60
2022-12-14T03:15:41.379Z,-4.96
2022-12-14T03:18:09.321Z,-5.32
2022-12-14T03:20:38.376Z,-5.11
2022-12-14T03:23:08.711Z,-5.42
2022-12-14T03:25:42.421Z,-5.00
2022-12-14T03:28:13.031Z,-5.04
2022-12-14T03:31:00.018Z,-5.65
2022-12-14T03:33:29.298Z,-5.78
2022-12-14T03:35:59.397Z,-5.57
2022-12-14T03:38:32.459Z,-6.15
2022-12-14T03:41:05.211Z,-5.87
2022-12-14T03:43:37.145Z,-5.78
2022-12-14T03:46:09.324Z,-5.56
2022-12-14T03:48:40.790Z,-5.49
2022-12-14T03:51:14.572Z,-5.58
2022-12-14T03:53:47.703Z,-5.60
2022-12-14T03:56:18.823Z,-5.70
2022-12-14T03:58:57.027Z,-5.76
2022-12-14T04:01:34.263Z,-5.73
2022-12-14T04:04:05.067Z,-6.00
2022-12-14T04:06:39.243Z,-6.20
2022-12-14T04:09:17.572Z,-6.14
2022-12-14T04:12:08.042Z,-5.99
2022-12-14T04:14:55.075Z,-5.92
2022-12-14T04:17:45.043Z,-5.83
2022-12-14T04:20:16.981Z,-5.78
2022-12-14T04:22:47.907Z,-6.06
2022-12-14T04:25:35.471Z,-5.92
2022-12-14T04:28:06.204Z,-6.08
2022-12-14T04:30:34.543Z,-5.85
2022-12-14T04:33:26.668Z,-5.67
2022-12-14T04:35:56.601Z,-5.65
2022-12-14T04:38:30.200Z,-6.08
2022-12-14T04:40:59.643Z,-5.70
2022-12-14T04:43:29.764Z,-5.76
2022-12-14T04:46:02.044Z,-6.33
2022-12-14T04:48:36.676Z,-6.16
2022-12-14T04:51:07.116Z,-6.06
2022-12-14T04:53:35.655Z,-5.99
2022-12-14T04:56:11.051Z,-6.04
2022-12-14T04:58:39.511Z,-6.11
2022-12-14T05:01:23.334Z,-6.31
2022-12-14T05:04:00.085Z,-6.78
2022-12-14T05:06:32.794Z,-6.92
2022-12-14T05:09:09.875Z,-6.56
2022-12-14T05:11:57.200Z,-6.40
2022-12-14T05:14:32.870Z,-6.29
2022-12-14T05:17:05.008Z,-6.40
2022-12-14T05:19:37.173Z,-7.38
2022-12-14T05:22:07.286Z,-7.17
2022-12-14T05:24:34.871Z,-6.80
2022-12-14T05:27:02.348Z,-6.76
2022-12-14T05:29:29.869Z,-7.14
2022-12-14T05:31:57.359Z,-6.99
2022-12-14T05:34:24.983Z,-7.03
2022-12-14T05:36:54.414Z,-7.01
2022-12-14T05:39:21.880Z,-7.05
2022-12-14T05:41:49.444Z,-6.99
2022-12-14T05:44:16.884Z,-6.86
2022-12-14T05:46:44.866Z,-7.01
2022-12-14T05:49:12.720Z,-7.56
2022-12-14T05:51:40.198Z,-7.80
2022-12-14T05:54:09.028Z,-7.48
2022-12-14T05:56:36.493Z,-7.08
2022-12-14T05:59:04.054Z,-6.97
2022-12-14T06:01:31.574Z,-6.74
2022-12-14T06:04:00.157Z,-6.50
2022-12-14T06:06:27.650Z,-6.34
2022-12-14T06:08:55.091Z,-6.13
2022-12-14T06:11:24.422Z,-6.07
2022-12-14T06:13:52.211Z,-5.96
2022-12-14T06:16:22.233Z,-5.93
2022-12-14T06:18:51.803Z,-5.73
2022-12-14T06:21:21.242Z,-5.78
2022-12-14T06:23:49.181Z,-5.75
2022-12-14T06:26:17.463Z,-5.74
2022-12-14T06:28:46.583Z,-5.70
2022-12-14T06:31:16.675Z,-5.61
2022-12-14T06:33:44.836Z,-5.59
2022-12-14T06:36:17.703Z,-5.49
2022-12-14T06:38:45.201Z,-5.51
2022-12-14T06:41:13.253Z,-5.53
2022-12-14T06:43:40.885Z,-5.60
2022-12-14T06:46:15.161Z,-5.54
2022-12-14T06:48:43.800Z,-5.55
2022-12-14T06:51:11.429Z,-5.44
2022-12-14T06:53:39.092Z,-5.45
2022-12-14T06:56:08.313Z,-5.36
2022-12-14T06:58:35.820Z,-5.41
2022-12-14T07:01:04.194Z,-5.30
2022-12-14T07:03:33.164Z,-5.24
2022-12-14T07:06:01.584Z,-5.32
2022-12-14T07:08:30.072Z,-5.34
2022-12-14T07:11:02.142Z,-5.38
2022-12-14T07:13:30.518Z,-5.36
2022-12-14T07:15:59.851Z,-5.27
2022-12-14T07:18:27.567Z,-5.35
2022-12-14T07:20:57.833Z,-5.63
2022-12-14T07:23:28.008Z,-5.29
2022-12-14T07:26:01.957Z,-5.23
2022-12-14T07:28:30.202Z,-5.24
2022-12-14T07:30:58.460Z,-5.26
2022-12-14T07:33:27.286Z,-5.11
2022-12-14T07:36:03.971Z,-5.11
2022-12-14T07:38:31.926Z,-5.02
2022-12-14T07:41:06.201Z,-4.94
2022-12-14T07:43:33.912Z,-4.87
2022-12-14T07:46:02.698Z,-4.94
2022-12-14T07:48:30.540Z,-4.95
2022-12-14T07:51:04.034Z,-4.89
2022-12-14T07:53:31.717Z,-4.77
2022-12-14T07:56:03.118Z,-4.82
2022-12-14T07:58:30.553Z,-4.77
2022-12-14T08:01:08.805Z,-4.64
2022-12-14T08:03:36.905Z,-4.62
2022-12-14T08:06:07.313Z,-4.55
2022-12-14T08:08:35.383Z,-4.62
2022-12-14T08:11:03.525Z,-4.46
2022-12-14T08:13:32.009Z,-4.52
2022-12-14T08:16:03.257Z,-4.50
2022-12-14T08:18:31.048Z,-4.64
2022-12-14T08:20:58.557Z,-4.68
2022-12-14T08:23:27.922Z,-4.49
2022-12-14T08:25:55.804Z,-4.51
2022-12-14T08:28:27.168Z,-4.44
2022-12-14T08:30:54.689Z,-4.54
2022-12-14T08:33:22.438Z,-4.54
2022-12-14T08:35:50.151Z,-4.45
2022-12-14T08:38:18.392Z,-4.54
2022-12-14T08:40:47.238Z,-4.36
2022-12-14T08:43:14.675Z,-4.23
2022-12-14T08:45:42.181Z,-4.33
2022-12-14T08:48:09.743Z,-4.04
2022-12-14T08:50:37.239Z,-4.22
2022-12-14T08:53:04.693Z,-4.09
2022-12-14T08:55:38.277Z,-3.94
2022-12-14T08:58:07.693Z,-3.89
2022-12-14T09:00:35.239Z,-4.06
2022-12-14T09:03:03.864Z,-4.03
2022-12-14T09:05:31.434Z,-3.99
2022-12-14T09:07:58.979Z,-3.92
2022-12-14T09:10:26.441Z,-4.00
2022-12-14T09:12:53.956Z,-3.81
2022-12-14T09:15:22.901Z,-3.87
2022-12-14T09:17:50.825Z,-3.78
2022-12-14T09:20:18.959Z,-3.71
2022-12-14T09:22:46.414Z,-3.64
2022-12-14T09:25:13.887Z,-3.68
2022-12-14T09:27:41.312Z,-3.70
2022-12-14T09:30:09.735Z,-3.81
2022-12-14T09:32:40.026Z,-3.70
2022-12-14T09:35:08.311Z,-3.80
2022-12-14T09:37:35.862Z,-3.62
2022-12-14T09:40:03.352Z,-3.66
2022-12-14T09:42:42.817Z,-3.57
2022-12-14T09:45:17.257Z,-3.55
2022-12-14T09:47:51.919Z,-3.47
2022-12-14T09:50:21.891Z,-3.50
2022-12-14T09:52:52.019Z,-3.53
2022-12-14T09:55:21.709Z,-3.77
2022-12-14T09:57:51.373Z,-3.72
2022-12-14T10:00:20.528Z,-3.70
2022-12-14T10:03:06.093Z,-3.67
2022-12-14T10:05:48.756Z,-3.93
2022-12-14T10:08:21.753Z,-4.11
2022-12-14T10:10:56.991Z,-4.21
2022-12-14T10:13:34.285Z,-3.82
2022-12-14T10:16:11.756Z,-3.82
2022-12-14T10:19:00.470Z,-3.79
2022-12-14T10:21:39.074Z,-3.59
2022-12-14T10:24:07.433Z,-3.38
2022-12-14T10:26:38.352Z,-3.56
2022-12-14T10:29:12.047Z,-3.64
2022-12-14T10:31:42.242Z,-3.67
2022-12-14T10:34:18.711Z,-3.70
2022-12-14T10:36:53.839Z,-3.73
2022-12-14T10:39:34.575Z,-3.46
2022-12-14T10:42:05.525Z,-3.27
2022-12-14T10:44:39.011Z,-3.12
2022-12-14T10:47:15.244Z,-3.12
2022-12-14T10:49:49.805Z,-3.03
2022-12-14T10:52:20.928Z,-2.81
2022-12-14T10:54:50.788Z,-2.84
2022-12-14T10:57:19.086Z,-2.85
2022-12-14T11:00:03.319Z,-2.66
2022-12-14T11:02:36.423Z,-2.67
2022-12-14T11:05:16.711Z,-2.71
2022-12-14T11:07:45.699Z,-2.60
2022-12-14T11:10:17.893Z,-2.77
2022-12-14T11:12:58.256Z,-2.55
2022-12-14T11:15:29.179Z,-2.42
2022-12-14T11:18:02.708Z,-2.19
2022-12-14T11:20:32.368Z,-2.36
2022-12-14T11:23:07.633Z,-1.86
2022-12-14T11:25:38.157Z,-1.95
2022-12-14T11:28:16.856Z,-1.89
2022-12-14T11:30:53.711Z,-1.82
2022-12-14T11:33:21.269Z,-1.87
2022-12-14T11:35:52.355Z,-1.82
2022-12-14T11:38:20.064Z,-1.69
2022-12-14T11:40:48.255Z,-1.44
2022-12-14T11:43:25.139Z,-1.43
2022-12-14T11:45:52.833Z,-1.03
2022-12-14T11:48:22.065Z,-1.06
2022-12-14T11:50:53.052Z,-0.82
2022-12-14T11:53:22.339Z,-0.89
2022-12-14T11:55:53.640Z,-1.03
2022-12-14T11:58:23.612Z,-0.98
2022-12-14T12:00:52.682Z,-0.64
2022-12-14T12:03:24.536Z,-0.40
2022-12-14T12:05:54.594Z,-0.79
2022-12-14T12:08:24.821Z,-0.68
2022-12-14T12:10:54.621Z,-0.26
2022-12-14T12:13:25.399Z,-0.29
2022-12-14T12:15:55.424Z,-0.35
2022-12-14T12:18:26.852Z,-0.29
2022-12-14T12:21:00.190Z,0.01
2022-12-14T12:23:32.665Z,0.29
2022-12-14T12:26:01.388Z,0.51
2022-12-14T12:28:31.284Z,0.32
2022-12-14T12:31:06.045Z,0.08
2022-12-14T12:33:42.320Z,0.02
2022-12-14T12:36:11.364Z,-0.20
2022-12-14T12:38:50.409Z,-0.08
2022-12-14T12:41:26.990Z,0.02
2022-12-14T12:43:56.805Z,-0.10
2022-12-14T12:46:28.408Z,0.04
2022-12-14T12:49:00.985Z,0.12
2022-12-14T12:51:32.228Z,0.13
2022-12-14T12:54:02.544Z,0.12
2022-12-14T12:56:40.008Z,-0.01
2022-12-14T12:59:07.916Z,-0.34
2022-12-14T13:01:38.260Z,-0.68
2022-12-14T13:04:10.177Z,-0.53
2022-12-14T13:06:42.661Z,-0.58
2022-12-14T13:09:17.443Z,-0.39
2022-12-14T13:11:44.953Z,-0.55
2022-12-14T13:14:19.117Z,-0.64
2022-12-14T13:16:48.785Z,-0.38
2022-12-14T13:22:25.863Z,-0.77
2022-12-14T13:24:58.930Z,-0.86
2022-12-14T13:27:41.981Z,-0.67
2022-12-14T13:30:40.607Z,-0.98
2022-12-14T13:33:20.122Z,-0.99
2022-12-14T13:36:05.657Z,-1.07
2022-12-14T13:38:49.124Z,-0.62
2022-12-14T13:41:27.167Z,-0.60
2022-12-14T13:44:14.092Z,-0.50
2022-12-14T13:46:42.039Z,-0.93
2022-12-14T13:49:18.657Z,-0.78
2022-12-14T13:51:50.362Z,-0.87
2022-12-14T13:54:22.777Z,-1.00
2022-12-14T13:56:50.308Z,-0.91
2022-12-14T13:59:27.788Z,-1.08
2022-12-14T14:01:58.248Z,-1.31
2022-12-14T14:04:27.159Z,-1.28
2022-12-14T14:06:55.066Z,-1.43
2022-12-14T14:09:51.876Z,-1.33
2022-12-14T14:12:39.605Z,-1.50
2022-12-14T14:15:27.416Z,-1.36
2022-12-14T14:17:55.326Z,-1.48
2022-12-14T14:20:38.797Z,-1.46
2022-12-14T14:23:27.764Z,-1.43
2022-12-14T14:26:13.468Z,-1.56
2022-12-14T14:28:41.019Z,-1.69
2022-12-14T14:31:08.622Z,-1.75
2022-12-14T14:33:46.778Z,-1.91
2022-12-14T14:36:22.002Z,-1.79
2022-12-14T14:38:49.765Z,-1.80
2022-12-14T14:41:23.799Z,-1.79
2022-12-14T14:43:52.594Z,-1.96
2022-12-14T14:46:33.655Z,-2.91
2022-12-14T14:49:01.243Z,-2.68
2022-12-14T14:51:30.721Z,-2.33
2022-12-14T14:57:36.661Z,-2.43
2022-12-14T15:00:06.675Z,-2.91
2022-12-14T15:02:35.316Z,-2.85
2022-12-14T15:05:40.992Z,-3.26
2022-12-14T15:07:54.840Z,-3.37
2022-12-14T15:10:27.857Z,-3.30
2022-12-14T15:13:00.935Z,-3.12
2022-12-14T15:15:34.718Z,-2.94
2022-12-14T15:18:15.715Z,-3.26
2022-12-14T15:20:54.264Z,-4.12
2022-12-14T15:23:22.125Z,-3.75
2022-12-14T15:25:56.943Z,-3.70
2022-12-14T15:28:27.979Z,-4.28
2022-12-14T15:30:57.797Z,-4.10
2022-12-14T15:33:27.823Z,-4.61
2022-12-14T15:36:03.200Z,-4.67
2022-12-14T15:38:32.987Z,-4.16
2022-12-14T15:41:02.572Z,-4.85
2022-12-14T15:43:32.155Z,-4.35
2022-12-14T15:46:04.563Z,-4.28
2022-12-14T15:48:34.270Z,-4.38
2022-12-14T15:51:03.950Z,-4.32
2022-12-14T15:53:33.884Z,-4.26
2022-12-14T15:56:08.230Z,-4.98
2022-12-14T15:58:40.531Z,-5.30
2022-12-14T16:01:13.029Z,-5.48
2022-12-14T16:03:42.561Z,-5.23
2022-12-14T16:06:10.660Z,-5.03
2022-12-14T16:08:40.804Z,-4.86
2022-12-14T16:11:14.046Z,-5.45
2022-12-14T16:13:43.687Z,-5.36
2022-12-14T16:16:12.602Z,-5.26
2022-12-14T16:18:40.820Z,-5.08
2022-12-14T16:21:10.588Z,-5.16
2022-12-14T16:23:44.867Z,-5.01
2022-12-14T16:26:23.400Z,-4.85
2022-12-14T16:29:07.647Z,-4.80
2022-12-14T16:31:35.233Z,-4.73
2022-12-14T16:34:16.812Z,-5.35
2022-12-14T16:36:56.284Z,-5.48
2022-12-14T16:39:35.378Z,-5.60
2022-12-14T16:42:04.908Z,-5.34
2022-12-14T16:44:38.284Z,-5.47
2022-12-14T16:47:28.526Z,-5.19
2022-12-14T16:49:57.636Z,-5.26
2022-12-14T16:52:28.140Z,-5.12
2022-12-14T16:55:11.728Z,-5.58
2022-12-14T16:57:40.187Z,-5.38
2022-12-14T17:00:20.917Z,-5.30
2022-12-14T17:02:55.128Z,-5.47
2022-12-14T17:05:23.407Z,-5.17
2022-12-14T17:07:51.080Z,-5.73
2022-12-14T17:10:20.482Z,-5.30
2022-12-14T17:12:49.028Z,-6.14
2022-12-14T17:15:20.137Z,-5.95
2022-12-14T17:17:49.548Z,-5.75
2022-12-14T17:20:22.418Z,-5.58
2022-12-14T17:22:50.695Z,-5.40
2022-12-14T17:25:18.741Z,-5.10
2022-12-14T17:27:46.617Z,-5.52
2022-12-14T17:30:20.028Z,-5.23
2022-12-14T17:32:48.360Z,-5.80
2022-12-14T17:35:17.593Z,-5.91
2022-12-14T17:37:45.119Z,-5.85
2022-12-14T17:40:13.319Z,-5.74
2022-12-14T17:42:41.841Z,-5.54
2022-12-14T17:45:19.915Z,-5.39
2022-12-14T17:47:47.385Z,-5.10
2022-12-14T17:50:15.959Z,-4.81
2022-12-14T17:52:44.110Z,-4.56
2022-12-14T17:55:18.268Z,-4.46
2022-12-14T17:57:45.819Z,-4.31
2022-12-14T18:00:34.747Z,-4.33
2022-12-14T18:03:04.843Z,-4.16
2022-12-14T18:05:33.220Z,-4.19
2022-12-14T18:08:00.717Z,-4.06
2022-12-14T18:10:28.795Z,-4.34
2022-12-14T18:12:56.478Z,-4.11
2022-12-14T18:15:26.977Z,-4.14
2022-12-14T18:17:54.628Z,-4.13
2022-12-14T18:20:24.797Z,-3.95
2022-12-14T18:22:52.735Z,-4.04
2022-12-14T18:25:31.584Z,-3.91
2022-12-14T18:28:00.044Z,-4.12
2022-12-14T18:30:29.969Z,-3.97
2022-12-14T18:33:00.910Z,-3.99
2022-12-14T18:35:32.075Z,-4.09
2022-12-14T18:37:59.599Z,-4.08
2022-12-14T18:40:28.710Z,-4.13
2022-12-14T18:42:56.240Z,-4.30
2022-12-14T18:45:26.343Z,-4.14
2022-12-14T18:47:55.000Z,-4.07
2022-12-14T18:50:23.055Z,-4.51
2022-12-14T18:52:52.082Z,-4.82
2022-12-14T18:55:21.420Z,-4.66
2022-12-14T18:57:51.027Z,-4.55
2022-12-14T19:00:20.733Z,-4.37
2022-12-14T19:02:49.851Z,-4.81
2022-12-14T19:05:20.825Z,-4.68
2022-12-14T19:07:51.668Z,-4.87
2022-12-14T19:10:21.355Z,-4.59
2022-12-14T19:12:49.436Z,-4.73
2022-12-14T19:15:18.744Z,-5.35
2022-12-14T19:17:46.711Z,-5.25
2022-12-14T19:20:16.226Z,-4.86
2022-12-14T19:22:44.053Z,-5.05
2022-12-14T19:25:13.331Z,-5.14
2022-12-14T19:30:28.455Z,-5.50
2022-12-14T19:32:57.172Z,-5.19
2022-12-14T19:35:25.248Z,-5.13
2022-12-14T19:37:52.906Z,-5.13
2022-12-14T19:40:21.782Z,-4.81
2022-12-14T19:42:50.333Z,-4.75
2022-12-14T19:45:18.040Z,-4.69
2022-12-14T19:47:45.492Z,-4.93
2022-12-14T19:50:14.566Z,-4.93
2022-12-14T19:52:42.356Z,-5.20
2022-12-14T19:55:11.006Z,-4.93
2022-12-14T19:57:40.741Z,-5.28
2022-12-14T20:00:09.992Z,-5.35
2022-12-14T20:02:37.782Z,-5.54
2022-12-14T20:05:06.336Z,-5.45
2022-12-14T20:07:36.337Z,-5.36
2022-12-14T20:10:08.281Z,-5.03
2022-12-14T20:12:35.750Z,-5.05
2022-12-14T20:15:05.078Z,-5.01
2022-12-14T20:17:32.583Z,-5.03
2022-12-14T20:20:00.130Z,-5.33
2022-12-14T20:22:27.637Z,-5.11
2022-12-14T20:24:55.140Z,-5.19
2022-12-14T20:27:22.643Z,-5.28
2022-12-14T20:29:50.204Z,-5.34
2022-12-14T20:32:19.136Z,-5.32
2022-12-14T20:34:46.822Z,-5.12
2022-12-14T20:37:14.298Z,-5.11
2022-12-14T20:39:41.791Z,-5.02
2022-12-14T20:42:09.370Z,-5.15
2022-12-14T20:44:36.804Z,-5.02
2022-12-14T20:47:04.327Z,-4.82
2022-12-14T20:49:33.223Z,-4.79
2022-12-14T20:52:00.683Z,-4.89
2022-12-14T20:54:29.259Z,-4.73
2022-12-14T20:56:56.774Z,-4.68
2022-12-14T20:59:24.476Z,-4.62
2022-12-14T21:01:55.869Z,-4.62
2022-12-14T21:04:24.093Z,-4.59
2022-12-14T21:06:52.982Z,-4.62
2022-12-14T21:09:20.421Z,-4.54
2022-12-14T21:12:07.412Z,-4.61
2022-12-14T21:14:36.807Z,-4.64
2022-12-14T21:17:05.327Z,-4.63
2022-12-14T21:19:35.329Z,-4.81
2022-12-14T21:22:04.792Z,-4.73
2022-12-14T21:27:21.717Z,-4.75
2022-12-14T21:29:49.709Z,-4.54
2022-12-14T21:32:18.213Z,-4.65
2022-12-14T21:34:46.280Z,-4.82
2022-12-14T21:37:15.475Z,-4.92
2022-12-14T21:39:46.325Z,-4.67
2022-12-14T21:42:20.410Z,-4.86
2022-12-14T21:44:49.651Z,-5.00
2022-12-14T21:47:18.676Z,-4.96
2022-12-14T21:49:48.005Z,-5.06
2022-12-14T21:52:18.316Z,-5.22
2022-12-14T21:54:46.072Z,-5.15
2022-12-14T21:57:32.447Z,-5.13
2022-12-14T22:00:00.137Z,-5.04
2022-12-14T22:02:28.138Z,-4.95
2022-12-14T22:04:56.801Z,-4.67
2022-12-14T22:07:31.373Z,-4.66
2022-12-14T22:09:58.980Z,-4.73
2022-12-14T22:12:26.722Z,-4.70
2022-12-14T22:14:54.229Z,-4.98
2022-12-14T22:17:21.877Z,-4.70
2022-12-14T22:19:50.690Z,-4.77
2022-12-14T22:22:18.490Z,-4.83
2022-12-14T22:24:49.323Z,-4.66
2022-12-14T22:27:17.029Z,-4.62
2022-12-14T22:29:44.469Z,-4.80
2022-12-14T22:32:12.578Z,-4.85
2022-12-14T22:34:40.117Z,-4.97
2022-12-14T22:37:07.676Z,-4.71
2022-12-14T22:39:35.888Z,-4.64
2022-12-14T22:42:04.744Z,-4.61
2022-12-14T22:44:32.358Z,-4.48
2022-12-14T22:46:59.853Z,-4.89
2022-12-14T22:49:27.313Z,-4.84
2022-12-14T22:51:54.742Z,-4.82
2022-12-14T22:54:24.288Z,-5.04
2022-12-14T22:56:55.371Z,-4.95
2022-12-14T22:59:26.724Z,-4.83
2022-12-14T23:01:54.472Z,-4.91
2022-12-14T23:04:22.026Z,-4.90
2022-12-14T23:06:49.543Z,-4.88
2022-12-14T23:09:34.676Z,-4.89
2022-12-14T23:12:21.934Z,-4.96
2022-12-14T23:15:08.792Z,-5.18
2022-12-14T23:17:54.022Z,-5.08
2022-12-14T23:20:39.134Z,-5.26
2022-12-14T23:23:24.516Z,-5.04
2022-12-14T23:26:09.417Z,-5.22
2022-12-14T23:28:54.640Z,-5.09
2022-12-14T23:31:41.002Z,-4.94
2022-12-14T23:34:25.965Z,-4.93
2022-12-14T23:37:13.829Z,-4.96
2022-12-14T23:40:03.227Z,-5.06
2022-12-14T23:42:47.949Z,-5.11
2022-12-14T23:45:33.420Z,-5.13
2022-12-14T23:48:19.651Z,-5.08
2022-12-14T23:51:04.567Z,-5.05
2022-12-14T23:53:49.973Z,-5.01
2022-12-14T23:56:35.320Z,-4.99
2022-12-14T23:59:22.690Z,-5.05
